createdAt,value
2017-01-26T00:00:32.054Z,24.27
2017-01-26T00:01:12.635Z,24.76
2017-01-26T00:01:53.230Z,24.37
2017-01-26T00:02:33.829Z,24.37
2017-01-26T00:03:14.438Z,24.27
2017-01-26T00:03:55.041Z,24.37
2017-01-26T00:04:35.629Z,24.27
2017-01-26T00:05:16.217Z,24.27
2017-01-26T00:05:56.802Z,24.27
2017-01-26T00:06:37.388Z,24.27
2017-01-26T00:07:17.965Z,24.76
2017-01-26T00:07:58.556Z,24.66
2017-01-26T00:08:39.151Z,24.66
2017-01-26T00:09:19.752Z,24.85
2017-01-26T00:10:00.355Z,24.27
2017-01-26T00:10:41.002Z,24.27
2017-01-26T00:11:21.567Z,24.37
2017-01-26T00:12:02.162Z,24.37
2017-01-26T00:12:42.749Z,24.37
2017-01-26T00:13:23.364Z,24.46
2017-01-26T00:14:03.966Z,24.56
2017-01-26T00:14:44.553Z,24.46
2017-01-26T00:15:25.167Z,24.37
2017-01-26T00:16:05.747Z,24.37
2017-01-26T00:16:46.332Z,24.27
2017-01-26T00:17:26.931Z,24.27
2017-01-26T00:18:07.527Z,24.27
2017-01-26T00:18:48.146Z,24.27
2017-01-26T00:19:28.735Z,24.27
2017-01-26T00:20:09.323Z,24.27
2017-01-26T00:20:49.946Z,24.46
2017-01-26T00:21:30.535Z,24.37
2017-01-26T00:22:11.133Z,24.37
2017-01-26T00:22:51.722Z,24.27
2017-01-26T00:23:32.314Z,24.37
2017-01-26T00:24:12.891Z,24.27
2017-01-26T00:24:53.484Z,24.37
2017-01-26T00:25:34.080Z,24.27
2017-01-26T00:26:14.664Z,24.76
2017-01-26T00:26:55.256Z,24.27
2017-01-26T00:27:35.849Z,24.46
2017-01-26T00:28:16.432Z,24.37
2017-01-26T00:28:57.027Z,24.56
2017-01-26T00:29:37.617Z,24.27
2017-01-26T00:30:18.200Z,24.46
2017-01-26T00:30:58.773Z,24.46
2017-01-26T00:31:39.347Z,24.37
2017-01-26T00:32:19.938Z,24.37
2017-01-26T00:33:00.527Z,24.27
2017-01-26T00:33:41.107Z,24.37
2017-01-26T00:34:21.700Z,24.27
2017-01-26T00:35:02.288Z,24.27
2017-01-26T00:35:42.879Z,24.46
2017-01-26T00:36:23.466Z,24.27
2017-01-26T00:37:04.067Z,24.46
2017-01-26T00:37:44.654Z,24.27
2017-01-26T00:38:25.271Z,24.17
2017-01-26T00:39:05.862Z,24.37
2017-01-26T00:39:46.442Z,24.27
2017-01-26T00:40:27.041Z,24.37
2017-01-26T00:41:07.644Z,24.37
2017-01-26T00:41:48.235Z,24.46
2017-01-26T00:42:28.820Z,24.37
2017-01-26T00:43:09.428Z,24.27
2017-01-26T00:43:50.019Z,24.46
2017-01-26T00:44:30.630Z,24.56
2017-01-26T00:45:11.238Z,24.37
2017-01-26T00:45:51.828Z,24.46
2017-01-26T00:46:32.405Z,24.27
2017-01-26T00:47:12.986Z,24.27
2017-01-26T00:47:53.559Z,24.37
2017-01-26T00:48:34.159Z,24.37
2017-01-26T00:49:14.742Z,24.37
2017-01-26T00:49:55.337Z,24.56
2017-01-26T00:50:35.921Z,24.27
2017-01-26T00:51:16.502Z,24.17
2017-01-26T00:51:57.098Z,24.27
2017-01-26T00:52:37.681Z,24.26
2017-01-26T00:53:18.268Z,24.35
2017-01-26T00:53:59.663Z,24.46
2017-01-26T00:54:40.251Z,24.27
2017-01-26T00:55:20.838Z,24.37
2017-01-26T00:56:01.436Z,24.27
2017-01-26T00:56:42.030Z,24.37
2017-01-26T00:57:22.629Z,23.88
2017-01-26T00:58:03.211Z,23.79
2017-01-26T00:58:43.795Z,24.26
2017-01-26T00:59:24.398Z,24.27
2017-01-26T01:00:04.998Z,24.26
2017-01-26T01:00:45.584Z,24.17
2017-01-26T01:01:26.165Z,24.27
2017-01-26T01:02:06.746Z,24.17
2017-01-26T01:02:47.338Z,24.26
2017-01-26T01:03:27.928Z,24.45
2017-01-26T01:04:08.513Z,24.08
2017-01-26T01:04:49.114Z,24.35
2017-01-26T01:05:29.701Z,24.35
2017-01-26T01:06:10.297Z,24.26
2017-01-26T01:06:50.893Z,24.35
2017-01-26T01:07:31.477Z,24.35
2017-01-26T01:08:12.075Z,24.07
2017-01-26T01:08:52.669Z,24.26
2017-01-26T01:09:33.276Z,24.26
2017-01-26T01:10:13.878Z,24.35
2017-01-26T01:10:54.478Z,24.56
2017-01-26T01:11:35.083Z,24.35
2017-01-26T01:12:15.682Z,24.26
2017-01-26T01:12:56.272Z,24.26
2017-01-26T01:13:36.854Z,24.35
2017-01-26T01:14:17.457Z,24.26
2017-01-26T01:14:58.045Z,24.16
2017-01-26T01:15:38.629Z,24.26
2017-01-26T01:16:19.237Z,24.35
2017-01-26T01:16:59.821Z,24.27
2017-01-26T01:17:40.421Z,24.26
2017-01-26T01:18:21.025Z,24.35
2017-01-26T01:19:01.606Z,24.35
2017-01-26T01:19:42.766Z,24.07
2017-01-26T01:20:23.362Z,24.55
2017-01-26T01:21:03.958Z,24.35
2017-01-26T01:21:44.545Z,23.87
2017-01-26T01:22:25.147Z,23.77
2017-01-26T01:23:05.736Z,24.26
2017-01-26T01:23:46.323Z,24.27
2017-01-26T01:24:26.916Z,24.16
2017-01-26T01:25:07.512Z,24.17
2017-01-26T01:25:48.132Z,24.16
2017-01-26T01:26:28.731Z,24.26
2017-01-26T01:27:09.323Z,24.07
2017-01-26T01:27:49.924Z,24.26
2017-01-26T01:28:30.497Z,24.07
2017-01-26T01:29:11.095Z,24.16
2017-01-26T01:29:51.681Z,24.26
2017-01-26T01:30:32.261Z,23.97
2017-01-26T01:31:12.847Z,24.35
2017-01-26T01:31:53.447Z,23.77
2017-01-26T01:32:34.035Z,23.68
2017-01-26T01:33:14.615Z,23.87
2017-01-26T01:33:55.199Z,24.35
2017-01-26T01:34:35.792Z,24.16
2017-01-26T01:35:16.382Z,24.35
2017-01-26T01:35:56.974Z,24.55
2017-01-26T01:36:37.562Z,24.45
2017-01-26T01:37:18.157Z,24.35
2017-01-26T01:37:58.756Z,24.26
2017-01-26T01:38:39.362Z,24.26
2017-01-26T01:39:19.968Z,24.35
2017-01-26T01:40:00.565Z,23.68
2017-01-26T01:40:41.765Z,23.68
2017-01-26T01:41:21.762Z,23.87
2017-01-26T01:42:02.343Z,24.16
2017-01-26T01:42:42.930Z,24.16
2017-01-26T01:43:23.509Z,24.16
2017-01-26T01:44:04.116Z,24.35
2017-01-26T01:44:44.699Z,24.35
2017-01-26T01:45:25.274Z,24.16
2017-01-26T01:46:05.870Z,24.16
2017-01-26T01:46:46.454Z,24.26
2017-01-26T01:47:27.043Z,24.26
2017-01-26T01:48:07.648Z,24.35
2017-01-26T01:48:48.241Z,24.07
2017-01-26T01:49:28.832Z,24.26
2017-01-26T01:50:09.416Z,24.35
2017-01-26T01:50:50.002Z,23.68
2017-01-26T01:51:30.582Z,24.07
2017-01-26T01:52:11.186Z,24.26
2017-01-26T01:52:51.761Z,24.26
2017-01-26T01:53:32.358Z,24.16
2017-01-26T01:54:12.952Z,24.45
2017-01-26T01:54:53.537Z,24.35
2017-01-26T01:55:34.130Z,24.07
2017-01-26T01:56:14.707Z,24.26
2017-01-26T01:56:55.324Z,24.26
2017-01-26T01:57:35.923Z,24.26
2017-01-26T01:58:16.509Z,24.16
2017-01-26T01:58:57.114Z,24.07
2017-01-26T01:59:37.691Z,24.26
2017-01-26T02:00:19.278Z,24.26
2017-01-26T02:00:58.988Z,24.07
2017-01-26T02:01:39.566Z,24.26
2017-01-26T02:02:20.151Z,24.35
2017-01-26T02:03:00.758Z,24.26
2017-01-26T02:03:41.352Z,24.26
2017-01-26T02:04:21.934Z,24.26
2017-01-26T02:05:02.529Z,24.26
2017-01-26T02:05:43.108Z,24.35
2017-01-26T02:06:23.694Z,24.16
2017-01-26T02:07:04.279Z,23.87
2017-01-26T02:07:44.897Z,24.35
2017-01-26T02:08:25.491Z,24.26
2017-01-26T02:09:06.084Z,24.07
2017-01-26T02:09:46.677Z,24.45
2017-01-26T02:10:27.264Z,24.45
2017-01-26T02:11:07.853Z,24.45
2017-01-26T02:11:48.434Z,24.26
2017-01-26T02:12:29.014Z,24.07
2017-01-26T02:13:09.605Z,24.45
2017-01-26T02:13:50.179Z,24.35
2017-01-26T02:14:30.757Z,24.55
2017-01-26T02:15:11.349Z,24.35
2017-01-26T02:15:51.944Z,24.35
2017-01-26T02:16:32.558Z,24.26
2017-01-26T02:17:13.163Z,24.45
2017-01-26T02:17:53.745Z,24.07
2017-01-26T02:18:34.347Z,24.35
2017-01-26T02:19:14.956Z,24.26
2017-01-26T02:19:55.567Z,24.35
2017-01-26T02:20:36.159Z,24.26
2017-01-26T02:21:16.726Z,24.26
2017-01-26T02:21:57.337Z,24.35
2017-01-26T02:22:37.931Z,24.16
2017-01-26T02:23:18.533Z,24.35
2017-01-26T02:23:59.136Z,24.35
2017-01-26T02:24:39.720Z,24.35
2017-01-26T02:25:20.319Z,24.26
2017-01-26T02:26:00.931Z,24.26
2017-01-26T02:26:41.495Z,24.26
2017-01-26T02:27:22.096Z,24.26
2017-01-26T02:28:02.676Z,24.35
2017-01-26T02:28:43.259Z,24.35
2017-01-26T02:29:23.847Z,24.35
2017-01-26T02:30:04.429Z,24.07
2017-01-26T02:30:45.013Z,24.26
2017-01-26T02:31:25.588Z,24.26
2017-01-26T02:32:06.169Z,24.07
2017-01-26T02:32:46.757Z,24.35
2017-01-26T02:33:27.349Z,24.26
2017-01-26T02:34:07.933Z,24.35
2017-01-26T02:34:48.506Z,24.16
2017-01-26T02:35:29.094Z,24.07
2017-01-26T02:36:09.672Z,24.45
2017-01-26T02:36:50.260Z,24.55
2017-01-26T02:37:30.852Z,24.26
2017-01-26T02:38:11.448Z,24.35
2017-01-26T02:38:52.063Z,24.35
2017-01-26T02:39:32.651Z,24.26
2017-01-26T02:40:13.239Z,24.45
2017-01-26T02:40:53.821Z,24.35
2017-01-26T02:41:34.405Z,24.45
2017-01-26T02:42:14.987Z,24.35
2017-01-26T02:42:55.574Z,24.26
2017-01-26T02:43:36.170Z,24.07
2017-01-26T02:44:16.782Z,24.35
2017-01-26T02:44:57.365Z,24.55
2017-01-26T02:45:37.958Z,24.35
2017-01-26T02:46:18.532Z,24.45
2017-01-26T02:46:59.114Z,24.16
2017-01-26T02:47:39.714Z,24.35
2017-01-26T02:48:20.316Z,24.45
2017-01-26T02:49:00.919Z,24.26
2017-01-26T02:49:41.519Z,24.35
2017-01-26T02:50:22.100Z,24.45
2017-01-26T02:51:02.690Z,24.45
2017-01-26T02:51:43.296Z,24.35
2017-01-26T02:52:23.897Z,24.26
2017-01-26T02:53:04.489Z,24.16
2017-01-26T02:53:45.076Z,24.35
2017-01-26T02:54:25.664Z,24.35
2017-01-26T02:55:06.252Z,24.35
2017-01-26T02:55:46.838Z,24.26
2017-01-26T02:56:27.421Z,24.07
2017-01-26T02:57:08.014Z,24.35
2017-01-26T02:57:48.605Z,24.35
2017-01-26T02:58:29.205Z,24.35
2017-01-26T02:59:09.776Z,24.45
2017-01-26T02:59:50.372Z,24.35
2017-01-26T03:00:30.952Z,24.16
2017-01-26T03:01:11.538Z,24.16
2017-01-26T03:01:52.134Z,24.07
2017-01-26T03:02:32.716Z,24.35
2017-01-26T03:03:13.332Z,24.45
2017-01-26T03:03:53.925Z,24.35
2017-01-26T03:04:34.536Z,24.35
2017-01-26T03:05:15.144Z,24.16
2017-01-26T03:05:55.738Z,24.35
2017-01-26T03:06:36.332Z,24.35
2017-01-26T03:07:16.914Z,23.87
2017-01-26T03:07:57.495Z,24.26
2017-01-26T03:08:38.085Z,24.07
2017-01-26T03:09:18.675Z,24.45
2017-01-26T03:09:59.257Z,24.35
2017-01-26T03:10:39.839Z,24.35
2017-01-26T03:11:20.422Z,24.07
2017-01-26T03:12:01.011Z,24.35
2017-01-26T03:12:41.612Z,24.07
2017-01-26T03:13:22.211Z,24.35
2017-01-26T03:14:02.796Z,24.35
2017-01-26T03:14:43.405Z,24.45
2017-01-26T03:15:24.006Z,24.34
2017-01-26T03:16:04.599Z,24.35
2017-01-26T03:16:45.206Z,24.35
2017-01-26T03:17:25.792Z,24.16
2017-01-26T03:18:06.380Z,23.68
2017-01-26T03:18:46.970Z,24.16
2017-01-26T03:19:27.587Z,24.16
2017-01-26T03:20:08.164Z,23.77
2017-01-26T03:20:48.765Z,24.26
2017-01-26T03:21:29.347Z,24.26
2017-01-26T03:22:09.934Z,24.07
2017-01-26T03:22:50.515Z,24.16
2017-01-26T03:23:31.095Z,24.26
2017-01-26T03:24:11.680Z,24.35
2017-01-26T03:24:52.279Z,24.35
2017-01-26T03:25:32.867Z,24.07
2017-01-26T03:26:13.465Z,24.26
2017-01-26T03:26:54.059Z,24.45
2017-01-26T03:27:34.644Z,24.45
2017-01-26T03:28:15.235Z,24.35
2017-01-26T03:28:55.827Z,24.35
2017-01-26T03:29:36.434Z,24.35
2017-01-26T03:30:17.021Z,23.68
2017-01-26T03:30:57.602Z,23.87
2017-01-26T03:31:38.189Z,23.77
2017-01-26T03:32:18.779Z,24.26
2017-01-26T03:32:59.397Z,24.35
2017-01-26T03:33:39.985Z,24.16
2017-01-26T03:34:20.571Z,24.35
2017-01-26T03:35:01.155Z,24.07
2017-01-26T03:35:41.744Z,24.34
2017-01-26T03:36:22.324Z,24.16
2017-01-26T03:37:02.906Z,24.07
2017-01-26T03:37:43.497Z,24.26
2017-01-26T03:38:24.104Z,24.35
2017-01-26T03:39:04.694Z,24.26
2017-01-26T03:39:45.275Z,24.35
2017-01-26T03:40:25.875Z,24.26
2017-01-26T03:41:06.462Z,24.26
2017-01-26T03:41:47.059Z,24.24
2017-01-26T03:42:27.654Z,24.35
2017-01-26T03:43:08.258Z,24.24
2017-01-26T03:43:48.879Z,24.45
2017-01-26T03:44:29.467Z,24.35
2017-01-26T03:45:10.052Z,24.24
2017-01-26T03:45:50.641Z,24.15
2017-01-26T03:46:31.244Z,24.26
2017-01-26T03:47:11.834Z,24.34
2017-01-26T03:47:52.422Z,24.05
2017-01-26T03:48:33.034Z,24.34
2017-01-26T03:49:13.622Z,24.35
2017-01-26T03:49:54.211Z,24.15
2017-01-26T03:50:34.808Z,24.15
2017-01-26T03:51:15.386Z,24.34
2017-01-26T03:51:55.963Z,24.44
2017-01-26T03:52:36.542Z,24.35
2017-01-26T03:53:17.138Z,24.35
2017-01-26T03:53:57.734Z,24.24
2017-01-26T03:54:38.340Z,24.24
2017-01-26T03:55:18.964Z,24.35
2017-01-26T03:55:59.587Z,24.45
2017-01-26T03:56:40.139Z,24.34
2017-01-26T03:57:20.737Z,24.35
2017-01-26T03:58:01.343Z,24.26
2017-01-26T03:58:41.934Z,24.26
2017-01-26T03:59:22.536Z,24.07
2017-01-26T04:00:03.129Z,23.97
2017-01-26T04:00:43.713Z,23.87
2017-01-26T04:01:24.314Z,23.96
2017-01-26T04:02:04.903Z,23.86
2017-01-26T04:02:45.492Z,24.07
2017-01-26T04:03:26.070Z,24.07
2017-01-26T04:04:06.672Z,23.87
2017-01-26T04:04:47.267Z,24.35
2017-01-26T04:05:27.850Z,24.07
2017-01-26T04:06:08.433Z,23.97
2017-01-26T04:06:49.022Z,24.07
2017-01-26T04:07:29.627Z,24.07
2017-01-26T04:08:10.223Z,23.97
2017-01-26T04:08:50.819Z,24.07
2017-01-26T04:09:31.416Z,24.07
2017-01-26T04:10:11.994Z,23.87
2017-01-26T04:10:52.587Z,23.97
2017-01-26T04:11:33.187Z,24.07
2017-01-26T04:12:13.761Z,23.97
2017-01-26T04:12:54.350Z,24.07
2017-01-26T04:13:34.944Z,23.87
2017-01-26T04:14:15.530Z,23.97
2017-01-26T04:14:56.135Z,23.97
2017-01-26T04:15:36.732Z,23.97
2017-01-26T04:16:17.320Z,24.16
2017-01-26T04:16:57.914Z,24.07
2017-01-26T04:17:38.498Z,24.16
2017-01-26T04:18:19.091Z,24.16
2017-01-26T04:18:59.690Z,24.07
2017-01-26T04:19:40.282Z,24.07
2017-01-26T04:20:20.877Z,24.16
2017-01-26T04:21:01.463Z,24.07
2017-01-26T04:21:42.059Z,24.07
2017-01-26T04:22:22.643Z,24.16
2017-01-26T04:23:03.234Z,24.07
2017-01-26T04:23:43.818Z,23.97
2017-01-26T04:24:24.404Z,23.97
2017-01-26T04:25:05.007Z,24.07
2017-01-26T04:25:45.607Z,24.07
2017-01-26T04:26:26.201Z,23.87
2017-01-26T04:27:06.780Z,23.97
2017-01-26T04:27:47.364Z,23.97
2017-01-26T04:28:27.987Z,24.07
2017-01-26T04:29:08.585Z,24.16
2017-01-26T04:29:49.177Z,24.07
2017-01-26T04:30:29.756Z,23.87
2017-01-26T04:31:10.342Z,23.97
2017-01-26T04:31:50.935Z,24.07
2017-01-26T04:32:31.526Z,24.16
2017-01-26T04:33:12.132Z,24.07
2017-01-26T04:33:52.745Z,23.87
2017-01-26T04:34:33.331Z,23.97
2017-01-26T04:35:13.934Z,23.87
2017-01-26T04:35:54.545Z,23.87
2017-01-26T04:36:35.142Z,23.97
2017-01-26T04:37:15.727Z,23.87
2017-01-26T04:37:56.319Z,23.97
2017-01-26T04:38:36.927Z,24.26
2017-01-26T04:39:17.519Z,23.97
2017-01-26T04:39:58.098Z,23.87
2017-01-26T04:40:38.704Z,23.97
2017-01-26T04:41:19.312Z,24.07
2017-01-26T04:41:59.894Z,23.97
2017-01-26T04:42:40.497Z,23.77
2017-01-26T04:43:21.090Z,23.77
2017-01-26T04:44:01.697Z,24.07
2017-01-26T04:44:42.289Z,23.77
2017-01-26T04:45:22.899Z,23.97
2017-01-26T04:46:03.489Z,23.87
2017-01-26T04:46:44.087Z,23.97
2017-01-26T04:47:24.674Z,23.87
2017-01-26T04:48:05.269Z,23.97
2017-01-26T04:48:45.863Z,24.26
2017-01-26T04:49:26.470Z,23.97
2017-01-26T04:50:07.045Z,23.87
2017-01-26T04:50:47.638Z,24.07
2017-01-26T04:51:28.217Z,24.07
2017-01-26T04:52:08.797Z,24.07
2017-01-26T04:52:49.393Z,24.07
2017-01-26T04:53:29.975Z,23.58
2017-01-26T04:54:10.579Z,24.07
2017-01-26T04:54:51.168Z,24.07
2017-01-26T04:55:31.750Z,24.07
2017-01-26T04:56:12.331Z,24.07
2017-01-26T04:56:52.922Z,23.77
2017-01-26T04:57:33.515Z,23.97
2017-01-26T04:58:14.096Z,23.49
2017-01-26T04:58:54.679Z,23.68
2017-01-26T04:59:35.271Z,24.07
2017-01-26T05:00:15.856Z,23.97
2017-01-26T05:00:56.440Z,23.49
2017-01-26T05:01:37.028Z,23.58
2017-01-26T05:02:17.616Z,23.39
2017-01-26T05:02:58.219Z,23.68
2017-01-26T05:03:38.823Z,23.87
2017-01-26T05:04:19.426Z,23.77
2017-01-26T05:05:00.017Z,23.87
2017-01-26T05:05:40.596Z,23.77
2017-01-26T05:06:21.179Z,23.87
2017-01-26T05:07:01.766Z,23.87
2017-01-26T05:07:42.353Z,23.87
2017-01-26T05:08:22.941Z,23.87
2017-01-26T05:09:03.522Z,23.97
2017-01-26T05:09:44.106Z,23.87
2017-01-26T05:10:24.700Z,23.87
2017-01-26T05:11:05.275Z,23.87
2017-01-26T05:11:45.857Z,23.87
2017-01-26T05:12:26.446Z,23.59
2017-01-26T05:13:07.059Z,23.77
2017-01-26T05:13:47.658Z,23.39
2017-01-26T05:14:28.240Z,23.39
2017-01-26T05:15:08.866Z,23.5
2017-01-26T05:15:49.464Z,23.59
2017-01-26T05:16:30.055Z,23.59
2017-01-26T05:17:10.640Z,23.68
2017-01-26T05:17:51.238Z,23.59
2017-01-26T05:18:31.823Z,23.5
2017-01-26T05:19:12.420Z,23.5
2017-01-26T05:19:53.027Z,23.59
2017-01-26T05:20:33.602Z,23.4
2017-01-26T05:21:14.217Z,23.4
2017-01-26T05:21:54.822Z,23.59
2017-01-26T05:22:35.425Z,23.5
2017-01-26T05:23:16.004Z,23.5
2017-01-26T05:23:56.607Z,23.69
2017-01-26T05:24:37.162Z,23.4
2017-01-26T05:25:17.788Z,23.69
2017-01-26T05:25:58.347Z,23.5
2017-01-26T05:26:38.931Z,23.59
2017-01-26T05:27:19.550Z,23.4
2017-01-26T05:28:00.147Z,23.5
2017-01-26T05:28:40.739Z,23.5
2017-01-26T05:29:21.327Z,23.5
2017-01-26T05:30:01.919Z,23.4
2017-01-26T05:30:42.519Z,23.4
2017-01-26T05:31:23.112Z,23.4
2017-01-26T05:32:03.698Z,23.4
2017-01-26T05:32:44.311Z,23.5
2017-01-26T05:33:24.932Z,23.5
2017-01-26T05:34:05.517Z,23.4
2017-01-26T05:34:46.119Z,23.59
2017-01-26T05:35:26.710Z,23.59
2017-01-26T05:36:07.301Z,23.5
2017-01-26T05:36:47.914Z,23.5
2017-01-26T05:37:28.512Z,23.59
2017-01-26T05:38:09.101Z,23.5
2017-01-26T05:38:49.688Z,23.4
2017-01-26T05:39:30.306Z,23.59
2017-01-26T05:40:10.917Z,23.5
2017-01-26T05:40:51.523Z,23.4
2017-01-26T05:41:32.116Z,23.4
2017-01-26T05:42:12.732Z,23.5
2017-01-26T05:42:53.327Z,23.4
2017-01-26T05:43:33.916Z,23.4
2017-01-26T05:44:14.531Z,23.4
2017-01-26T05:44:55.123Z,23.59
2017-01-26T05:45:35.713Z,23.5
2017-01-26T05:46:16.308Z,23.5
2017-01-26T05:46:56.903Z,23.59
2017-01-26T05:47:37.493Z,23.59
2017-01-26T05:48:18.078Z,23.5
2017-01-26T05:48:58.664Z,23.59
2017-01-26T05:49:39.246Z,23.4
2017-01-26T05:50:19.835Z,23.59
2017-01-26T05:51:00.446Z,23.3
2017-01-26T05:51:41.028Z,23.5
2017-01-26T05:52:21.615Z,23.5
2017-01-26T05:53:02.203Z,23.5
2017-01-26T05:53:42.792Z,23.3
2017-01-26T05:54:23.391Z,23.59
2017-01-26T05:55:04.008Z,23.5
2017-01-26T05:55:44.600Z,23.4
2017-01-26T05:56:25.193Z,23.59
2017-01-26T05:57:05.773Z,23.4
2017-01-26T05:57:46.371Z,23.5
2017-01-26T05:58:26.952Z,23.69
2017-01-26T05:59:07.538Z,23.4
2017-01-26T05:59:48.144Z,23.4
2017-01-26T06:00:28.739Z,23.3
2017-01-26T06:01:09.331Z,23.4
2017-01-26T06:01:49.926Z,23.4
2017-01-26T06:02:30.512Z,23.59
2017-01-26T06:03:11.098Z,23.4
2017-01-26T06:03:51.674Z,23.4
2017-01-26T06:04:32.265Z,23.21
2017-01-26T06:05:12.853Z,23.3
2017-01-26T06:05:53.448Z,23.3
2017-01-26T06:06:34.042Z,23.3
2017-01-26T06:07:14.630Z,23.3
2017-01-26T06:07:55.203Z,23.4
2017-01-26T06:08:35.788Z,23.4
2017-01-26T06:09:16.371Z,23.4
2017-01-26T06:09:56.962Z,23.4
2017-01-26T06:10:37.554Z,23.3
2017-01-26T06:11:18.154Z,23.4
2017-01-26T06:11:58.752Z,23.4
2017-01-26T06:12:39.365Z,23.3
2017-01-26T06:13:19.943Z,23.5
2017-01-26T06:14:00.545Z,23.4
2017-01-26T06:14:41.126Z,23.3
2017-01-26T06:15:21.704Z,23.4
2017-01-26T06:16:02.334Z,23.5
2017-01-26T06:16:42.944Z,23.3
2017-01-26T06:17:23.546Z,23.3
2017-01-26T06:18:04.142Z,23.4
2017-01-26T06:18:44.746Z,23.5
2017-01-26T06:19:25.336Z,23.5
2017-01-26T06:20:05.924Z,23.3
2017-01-26T06:20:46.500Z,23.3
2017-01-26T06:21:27.088Z,23.5
2017-01-26T06:22:07.669Z,23.5
2017-01-26T06:22:48.270Z,23.5
2017-01-26T06:23:28.855Z,23.3
2017-01-26T06:24:09.431Z,23.3
2017-01-26T06:24:50.014Z,23.21
2017-01-26T06:25:30.605Z,23.5
2017-01-26T06:26:11.187Z,23.3
2017-01-26T06:26:51.776Z,23.4
2017-01-26T06:27:32.393Z,23.4
2017-01-26T06:28:12.944Z,23.3
2017-01-26T06:28:53.523Z,23.5
2017-01-26T06:29:34.120Z,23.4
2017-01-26T06:30:14.708Z,23.4
2017-01-26T06:30:55.310Z,23.4
2017-01-26T06:31:35.889Z,23.59
2017-01-26T06:32:16.476Z,23.4
2017-01-26T06:32:57.070Z,23.3
2017-01-26T06:33:37.643Z,23.4
2017-01-26T06:34:18.238Z,23.4
2017-01-26T06:34:58.842Z,23.4
2017-01-26T06:35:39.437Z,23.5
2017-01-26T06:36:20.015Z,23.5
2017-01-26T06:37:00.601Z,23.3
2017-01-26T06:37:41.202Z,23.3
2017-01-26T06:38:21.795Z,23.4
2017-01-26T06:39:02.392Z,23.11
2017-01-26T06:39:42.987Z,23.4
2017-01-26T06:40:23.577Z,23.5
2017-01-26T06:41:04.173Z,23.5
2017-01-26T06:41:44.763Z,23.3
2017-01-26T06:42:25.349Z,23.4
2017-01-26T06:43:05.943Z,23.59
2017-01-26T06:43:46.520Z,23.3
2017-01-26T06:44:27.100Z,23.4
2017-01-26T06:45:07.704Z,23.3
2017-01-26T06:45:48.306Z,23.5
2017-01-26T06:46:28.894Z,23.4
2017-01-26T06:47:09.476Z,23.4
2017-01-26T06:47:50.076Z,23.4
2017-01-26T06:48:30.669Z,23.3
2017-01-26T06:49:11.265Z,23.5
2017-01-26T06:49:51.881Z,23.3
2017-01-26T06:50:32.479Z,23.5
2017-01-26T06:51:13.077Z,23.69
2017-01-26T06:51:53.655Z,23.4
2017-01-26T06:52:34.244Z,23.4
2017-01-26T06:53:14.824Z,23.5
2017-01-26T06:53:55.425Z,23.4
2017-01-26T06:54:36.005Z,23.5
2017-01-26T06:55:16.598Z,23.3
2017-01-26T06:55:57.182Z,23.4
2017-01-26T06:56:37.776Z,23.4
2017-01-26T06:57:18.353Z,23.4
2017-01-26T06:57:58.944Z,23.5
2017-01-26T06:58:39.546Z,23.3
2017-01-26T06:59:20.134Z,23.4
2017-01-26T07:00:00.724Z,23.3
2017-01-26T07:00:41.307Z,23.4
2017-01-26T07:01:21.915Z,23.4
2017-01-26T07:02:02.474Z,23.4
2017-01-26T07:02:43.057Z,23.3
2017-01-26T07:03:23.646Z,23.5
2017-01-26T07:04:04.269Z,23.59
2017-01-26T07:04:44.858Z,23.3
2017-01-26T07:05:25.434Z,23.3
2017-01-26T07:06:06.019Z,23.4
2017-01-26T07:06:46.619Z,23.3
2017-01-26T07:07:27.228Z,23.5
2017-01-26T07:08:07.817Z,23.3
2017-01-26T07:08:48.413Z,23.5
2017-01-26T07:09:28.996Z,23.3
2017-01-26T07:10:09.596Z,23.3
2017-01-26T07:10:50.186Z,23.4
2017-01-26T07:11:30.787Z,23.5
2017-01-26T07:12:11.406Z,23.4
2017-01-26T07:12:52.002Z,23.4
2017-01-26T07:13:32.587Z,23.3
2017-01-26T07:14:13.190Z,23.5
2017-01-26T07:14:53.769Z,23.4
2017-01-26T07:15:34.379Z,23.3
2017-01-26T07:16:14.960Z,23.3
2017-01-26T07:16:55.556Z,23.4
2017-01-26T07:17:36.144Z,23.4
2017-01-26T07:18:16.746Z,23.4
2017-01-26T07:18:57.331Z,23.3
2017-01-26T07:19:37.917Z,23.5
2017-01-26T07:20:18.521Z,23.4
2017-01-26T07:20:59.105Z,23.4
2017-01-26T07:21:39.702Z,23.59
2017-01-26T07:22:20.294Z,23.4
2017-01-26T07:23:00.878Z,23.4
2017-01-26T07:23:41.483Z,23.59
2017-01-26T07:24:22.084Z,23.4
2017-01-26T07:25:02.678Z,23.4
2017-01-26T07:25:43.272Z,23.3
2017-01-26T07:26:23.861Z,23.4
2017-01-26T07:27:04.455Z,23.59
2017-01-26T07:27:45.066Z,23.59
2017-01-26T07:28:25.655Z,23.59
2017-01-26T07:29:06.268Z,23.21
2017-01-26T07:29:47.788Z,23.11
2017-01-26T07:30:28.412Z,23.21
2017-01-26T07:31:09.005Z,23.21
2017-01-26T07:31:49.591Z,23.21
2017-01-26T07:32:30.182Z,23.21
2017-01-26T07:33:10.803Z,23.4
2017-01-26T07:33:51.430Z,23.21
2017-01-26T07:34:32.032Z,23.01
2017-01-26T07:35:12.623Z,23.11
2017-01-26T07:35:53.202Z,23.11
2017-01-26T07:36:33.808Z,23.11
2017-01-26T07:37:14.401Z,23.01
2017-01-26T07:37:54.990Z,22.91
2017-01-26T07:38:35.588Z,22.91
2017-01-26T07:39:16.188Z,22.82
2017-01-26T07:39:56.789Z,23.01
2017-01-26T07:40:37.404Z,23.21
2017-01-26T07:41:18.004Z,23.21
2017-01-26T07:41:58.589Z,23.21
2017-01-26T07:42:39.180Z,23.4
2017-01-26T07:43:19.807Z,23.21
2017-01-26T07:44:00.409Z,23.4
2017-01-26T07:44:41.010Z,23.4
2017-01-26T07:45:21.612Z,23.21
2017-01-26T07:46:02.215Z,23.21
2017-01-26T07:46:42.834Z,23.21
2017-01-26T07:47:23.422Z,23.21
2017-01-26T07:48:04.004Z,23.4
2017-01-26T07:48:44.608Z,23.21
2017-01-26T07:49:25.196Z,23.21
2017-01-26T07:50:05.803Z,23.21
2017-01-26T07:50:46.389Z,23.21
2017-01-26T07:51:26.996Z,23.21
2017-01-26T07:52:07.595Z,23.21
2017-01-26T07:52:48.186Z,23.21
2017-01-26T07:53:28.789Z,23.5
2017-01-26T07:54:09.382Z,23.21
2017-01-26T07:54:50.000Z,23.21
2017-01-26T07:55:30.614Z,23.3
2017-01-26T07:56:11.228Z,23.21
2017-01-26T07:56:51.839Z,23.21
2017-01-26T07:57:32.446Z,23.21
2017-01-26T07:58:13.043Z,23.4
2017-01-26T07:58:53.656Z,23.4
2017-01-26T07:59:34.253Z,23.21
2017-01-26T08:00:14.845Z,23.4
2017-01-26T08:00:55.442Z,23.01
2017-01-26T08:01:36.047Z,23.21
2017-01-26T08:02:16.667Z,23.59
2017-01-26T08:02:57.268Z,23.4
2017-01-26T08:03:37.838Z,23.4
2017-01-26T08:04:18.464Z,23.3
2017-01-26T08:04:59.069Z,23.3
2017-01-26T08:05:39.680Z,23.11
2017-01-26T08:06:20.283Z,23.59
2017-01-26T08:07:00.875Z,23.4
2017-01-26T08:07:41.480Z,23.21
2017-01-26T08:08:22.081Z,23.21
2017-01-26T08:09:02.697Z,23.59
2017-01-26T08:09:43.283Z,23.69
2017-01-26T08:10:23.901Z,23.3
2017-01-26T08:11:04.492Z,23.4
2017-01-26T08:11:45.105Z,23.3
2017-01-26T08:12:25.710Z,23.5
2017-01-26T08:13:06.307Z,23.5
2017-01-26T08:13:46.940Z,23.4
2017-01-26T08:14:27.567Z,23.3
2017-01-26T08:15:08.173Z,23.59
2017-01-26T08:15:48.796Z,23.5
2017-01-26T08:16:29.408Z,23.5
2017-01-26T08:17:10.009Z,23.4
2017-01-26T08:17:50.610Z,23.5
2017-01-26T08:18:31.218Z,23.5
2017-01-26T08:19:11.814Z,23.5
2017-01-26T08:19:52.423Z,23.5
2017-01-26T08:20:33.033Z,23.5
2017-01-26T08:21:13.622Z,23.3
2017-01-26T08:21:54.217Z,23.5
2017-01-26T08:22:34.841Z,23.5
2017-01-26T08:23:15.426Z,23.59
2017-01-26T08:23:56.009Z,23.59
2017-01-26T08:24:36.585Z,23.4
2017-01-26T08:25:17.196Z,23.69
2017-01-26T08:25:57.789Z,23.59
2017-01-26T08:26:38.416Z,23.5
2017-01-26T08:27:19.005Z,23.5
2017-01-26T08:27:59.591Z,23.4
2017-01-26T08:28:40.173Z,23.59
2017-01-26T08:29:20.764Z,23.59
2017-01-26T08:30:01.385Z,23.59
2017-01-26T08:30:41.984Z,23.5
2017-01-26T08:31:22.576Z,23.5
2017-01-26T08:32:03.325Z,23.69
2017-01-26T08:32:45.097Z,23.79
2017-01-26T08:33:25.822Z,23.79
2017-01-26T08:34:06.474Z,23.88
2017-01-26T08:34:47.166Z,23.79
2017-01-26T08:35:27.760Z,23.59
2017-01-26T08:36:08.352Z,23.98
2017-01-26T08:36:48.966Z,23.88
2017-01-26T08:37:29.559Z,23.88
2017-01-26T08:38:10.163Z,23.79
2017-01-26T08:38:50.769Z,23.98
2017-01-26T08:39:31.357Z,23.69
2017-01-26T08:40:11.972Z,23.59
2017-01-26T08:40:52.560Z,23.69
2017-01-26T08:41:33.171Z,23.59
2017-01-26T08:42:13.764Z,23.59
2017-01-26T08:42:54.368Z,23.59
2017-01-26T08:43:34.975Z,23.4
2017-01-26T08:44:15.573Z,23.98
2017-01-26T08:44:56.175Z,23.98
2017-01-26T08:45:36.773Z,24.08
2017-01-26T08:46:17.379Z,23.88
2017-01-26T08:46:57.978Z,23.88
2017-01-26T08:47:38.613Z,23.88